createdAt,value
2022-07-27T00:00:57.109Z,98551.59
2022-07-27T00:06:02.103Z,98559.53
2022-07-27T00:11:06.326Z,98556.25
2022-07-27T00:16:10.020Z,98558.53
2022-07-27T00:21:14.927Z,98553.63
2022-07-27T00:26:18.414Z,98560.25
2022-07-27T00:31:21.851Z,98552.19
2022-07-27T00:36:26.711Z,98554.16
2022-07-27T00:41:30.073Z,98549.34
2022-07-27T00:46:33.997Z,98545.84
2022-07-27T00:51:38.887Z,98551.16
2022-07-27T00:56:42.958Z,98556.69
2022-07-27T01:01:46.146Z,98558.66
2022-07-27T01:06:51.186Z,98562.34
2022-07-27T01:11:54.577Z,98560.28
2022-07-27T01:16:57.892Z,98558.56
2022-07-27T01:22:02.729Z,98564.97
2022-07-27T01:27:06.760Z,98578.38
2022-07-27T01:32:09.942Z,98565.25
2022-07-27T01:37:14.693Z,98567.81
2022-07-27T01:42:18.015Z,98572.91
2022-07-27T01:47:21.466Z,98574.63
2022-07-27T01:52:26.324Z,98574.44
2022-07-27T01:57:29.622Z,98581.31
2022-07-27T02:02:32.942Z,98579.69
2022-07-27T02:07:37.689Z,98586.91
2022-07-27T02:12:41.039Z,98581.44
2022-07-27T02:18:04.366Z,98582.75
2022-07-27T02:23:29.262Z,98575.78
2022-07-27T02:28:32.654Z,98585.22
2022-07-27T02:33:36.068Z,98584.59
2022-07-27T02:38:40.779Z,98574.97
2022-07-27T02:43:44.150Z,98586.75
2022-07-27T02:48:47.648Z,98580.31
2022-07-27T02:53:52.460Z,98572.13
2022-07-27T02:58:56.151Z,98578.91
2022-07-27T03:03:59.494Z,98583.13
2022-07-27T03:09:05.779Z,98582.88
2022-07-27T03:14:09.312Z,98588.94
2022-07-27T03:19:13.439Z,98584.78
2022-07-27T03:24:18.552Z,98595.16
2022-07-27T03:29:21.982Z,98595.28
2022-07-27T03:34:25.362Z,98588.66
2022-07-27T03:39:30.198Z,98588.34
2022-07-27T03:44:33.570Z,98586.16
2022-07-27T03:49:37.394Z,98582.00
2022-07-27T03:54:41.877Z,98587.72
2022-07-27T03:59:45.277Z,98588.94
2022-07-27T04:04:48.611Z,98589.59
2022-07-27T04:09:53.301Z,98606.91
2022-07-27T04:14:56.673Z,98597.91
2022-07-27T04:19:59.807Z,98603.34
2022-07-27T04:25:04.667Z,98610.31
2022-07-27T04:30:09.894Z,98614.09
2022-07-27T04:35:13.762Z,98618.81
2022-07-27T04:40:18.515Z,98608.75
2022-07-27T04:45:22.337Z,98616.53
2022-07-27T04:50:25.706Z,98619.00
2022-07-27T04:55:30.475Z,98614.34
2022-07-27T05:00:33.839Z,98610.28
2022-07-27T05:05:37.403Z,98615.91
2022-07-27T05:10:42.108Z,98621.28
2022-07-27T05:15:53.919Z,98611.75
2022-07-27T05:20:59.209Z,98624.09
2022-07-27T05:26:04.325Z,98622.75
2022-07-27T05:31:07.724Z,98630.69
2022-07-27T05:36:11.046Z,98621.56
2022-07-27T05:41:15.932Z,98622.00
2022-07-27T05:46:19.246Z,98629.31
2022-07-27T05:51:22.750Z,98630.84
2022-07-27T05:56:27.746Z,98633.91
2022-07-27T06:01:31.181Z,98630.25
2022-07-27T06:06:52.101Z,98633.03
2022-07-27T06:11:57.103Z,98632.22
2022-07-27T06:17:00.497Z,98631.25
2022-07-27T06:22:03.897Z,98636.16
2022-07-27T06:27:08.618Z,98625.22
2022-07-27T06:32:12.128Z,98620.91
2022-07-27T06:37:17.423Z,98637.53
2022-07-27T06:42:24.347Z,98629.00
2022-07-27T06:47:28.971Z,98623.81
2022-07-27T06:52:32.412Z,98635.41
2022-07-27T06:57:37.163Z,98633.97
2022-07-27T07:02:51.361Z,98640.72
2022-07-27T07:07:55.524Z,98635.09
2022-07-27T07:13:05.429Z,98626.16
2022-07-27T07:18:09.832Z,98623.38
2022-07-27T07:23:13.676Z,98622.97
2022-07-27T07:28:22.257Z,98636.34
2022-07-27T07:33:27.046Z,98632.22
2022-07-27T07:38:30.387Z,98631.91
2022-07-27T07:43:36.787Z,98635.91
2022-07-27T07:48:43.458Z,98637.22
2022-07-27T07:53:46.867Z,98637.66
2022-07-27T07:58:51.631Z,98634.16
2022-07-27T08:03:55.402Z,98633.16
2022-07-27T08:08:58.740Z,98624.22
2022-07-27T08:14:03.607Z,98629.13
2022-07-27T08:19:08.763Z,98623.72
2022-07-27T08:24:12.989Z,98613.25
2022-07-27T08:29:18.106Z,98609.97
2022-07-27T08:34:26.634Z,98602.31
2022-07-27T08:40:35.178Z,98605.91
2022-07-27T08:44:55.355Z,98605.31
2022-07-27T08:49:59.066Z,98602.22
2022-07-27T08:55:03.908Z,98598.75
2022-07-27T09:00:10.549Z,98592.69
2022-07-27T09:05:14.180Z,98606.88
2022-07-27T09:10:31.307Z,98584.06
2022-07-27T09:16:15.833Z,98594.13
2022-07-27T09:21:10.452Z,98601.09
2022-07-27T09:26:30.466Z,98603.94
2022-07-27T09:31:43.206Z,98601.16
2022-07-27T09:36:57.985Z,98611.53
2022-07-27T09:42:03.345Z,98598.03
2022-07-27T09:47:23.361Z,98591.72
2022-07-27T09:52:29.091Z,98587.69
2022-07-27T09:57:32.477Z,98594.13
2022-07-27T10:02:37.600Z,98594.50
2022-07-27T10:07:41.077Z,98591.31
2022-07-27T10:12:49.177Z,98591.38
2022-07-27T10:18:06.690Z,98591.88
2022-07-27T10:23:26.460Z,98591.69
2022-07-27T10:28:31.342Z,98581.25
2022-07-27T10:33:46.801Z,98593.09
2022-07-27T10:38:52.386Z,98583.66
2022-07-27T10:44:28.478Z,98580.13
2022-07-27T10:49:40.171Z,98596.44
2022-07-27T10:54:49.575Z,98583.16
2022-07-27T11:00:08.590Z,98591.41
2022-07-27T11:10:44.985Z,98586.38
2022-07-27T11:15:55.973Z,98587.84
2022-07-27T11:21:25.564Z,98583.25
2022-07-27T11:26:37.570Z,98582.34
2022-07-27T11:31:55.222Z,98571.91
2022-07-27T11:37:03.435Z,98571.50
2022-07-27T11:42:12.329Z,98568.06
2022-07-27T11:47:24.263Z,98567.72
2022-07-27T11:52:29.184Z,98568.88
2022-07-27T11:57:33.993Z,98549.34
2022-07-27T12:02:37.413Z,98547.84
2022-07-27T12:07:44.545Z,98544.16
2022-07-27T12:12:50.534Z,98542.31
2022-07-27T12:17:57.451Z,98542.28
2022-07-27T12:23:07.001Z,98522.38
2022-07-27T12:28:13.269Z,98509.88
2022-07-27T12:33:28.423Z,98503.03
2022-07-27T12:38:40.655Z,98498.63
2022-07-27T12:43:44.163Z,98499.13
2022-07-27T12:48:47.572Z,98482.88
2022-07-27T12:53:52.376Z,98498.72
2022-07-27T12:59:00.253Z,98495.91
2022-07-27T13:04:03.671Z,98489.25
2022-07-27T13:09:08.374Z,98492.84
2022-07-27T13:14:11.796Z,98483.06
2022-07-27T13:19:16.239Z,98481.06
2022-07-27T13:24:22.167Z,98487.97
2022-07-27T13:29:25.469Z,98480.94
2022-07-27T13:34:28.913Z,98491.50
2022-07-27T13:39:34.497Z,98493.66
2022-07-27T13:50:01.885Z,98506.16
2022-07-27T13:55:09.200Z,98504.47
2022-07-27T14:00:14.926Z,98489.16
2022-07-27T14:05:19.486Z,98500.78
2022-07-27T14:10:39.969Z,98501.94
2022-07-27T14:15:53.654Z,98482.47
2022-07-27T14:21:00.165Z,98489.13
2022-07-27T14:26:06.803Z,98493.28
2022-07-27T14:31:13.242Z,98491.28
2022-07-27T14:36:16.633Z,98501.97
2022-07-27T14:41:21.421Z,98513.56
2022-07-27T14:46:25.497Z,98513.38
2022-07-27T14:51:28.874Z,98505.56
2022-07-27T14:56:33.744Z,98519.94
2022-07-27T15:01:37.520Z,98525.53
2022-07-27T15:06:40.894Z,98519.50
2022-07-27T15:11:45.627Z,98517.13
2022-07-27T15:16:50.289Z,98531.88
2022-07-27T15:21:53.856Z,98520.63
2022-07-27T15:26:58.624Z,98518.34
2022-07-27T15:32:02.040Z,98520.69
2022-07-27T15:37:07.615Z,98523.50
2022-07-27T15:42:12.479Z,98526.19
2022-07-27T15:47:15.871Z,98529.94
2022-07-27T15:52:19.238Z,98515.56
2022-07-27T15:57:24.115Z,98512.56
2022-07-27T16:02:29.072Z,98509.63
2022-07-27T16:07:40.767Z,98511.00
2022-07-27T16:12:46.737Z,98517.44
2022-07-27T16:17:50.077Z,98518.81
2022-07-27T16:22:53.441Z,98522.06
2022-07-27T16:27:58.188Z,98502.94
2022-07-27T16:33:03.583Z,98505.97
2022-07-27T16:38:06.911Z,98501.50
2022-07-27T16:43:11.561Z,98498.81
2022-07-27T16:48:15.174Z,98499.13
2022-07-27T16:53:18.580Z,98506.19
2022-07-27T16:58:23.456Z,98502.28
2022-07-27T17:03:27.130Z,98501.44
2022-07-27T17:08:30.622Z,98499.44
2022-07-27T17:13:35.969Z,98502.06
2022-07-27T17:18:40.655Z,98512.00
2022-07-27T17:23:45.176Z,98534.56
2022-07-27T17:28:51.038Z,98552.41
2022-07-27T17:33:54.710Z,98566.81
2022-07-27T17:38:58.357Z,98574.00
2022-07-27T17:44:03.326Z,98577.06
2022-07-27T17:49:07.576Z,98574.81
2022-07-27T17:54:11.010Z,98581.19
2022-07-27T17:59:36.700Z,98581.50
2022-07-27T18:04:40.494Z,98583.25
2022-07-27T18:09:44.012Z,98586.75
2022-07-27T18:15:02.350Z,98596.47
2022-07-27T18:20:09.141Z,98607.00
2022-07-27T18:25:12.691Z,98616.06
2022-07-27T18:30:17.829Z,98668.06
2022-07-27T18:35:21.182Z,98697.59
2022-07-27T18:40:24.869Z,98728.75
2022-07-27T18:45:34.459Z,98704.31
2022-07-27T18:50:39.521Z,98691.59
2022-07-27T18:55:43.443Z,98689.53
2022-07-27T19:00:48.232Z,98698.28
2022-07-27T19:05:52.820Z,98686.38
2022-07-27T19:10:56.708Z,98683.91
2022-07-27T19:16:01.640Z,98668.47
2022-07-27T19:21:05.128Z,98666.78
2022-07-27T19:26:10.266Z,98654.59
2022-07-27T19:31:23.534Z,98660.84
2022-07-27T19:36:27.876Z,98669.97
2022-07-27T19:41:31.280Z,98667.63
2022-07-27T19:46:36.164Z,98666.19
2022-07-27T19:51:39.979Z,98671.22
2022-07-27T19:56:43.528Z,98671.59
2022-07-27T20:01:48.519Z,98680.41
2022-07-27T20:06:51.887Z,98674.66
2022-07-27T20:12:00.156Z,98683.91
2022-07-27T20:17:06.256Z,98681.44
2022-07-27T20:22:09.754Z,98675.47
2022-07-27T20:27:13.086Z,98672.16
2022-07-27T20:32:17.887Z,98684.94
2022-07-27T20:37:21.332Z,98684.75
2022-07-27T20:42:24.716Z,98694.66
2022-07-27T20:47:34.330Z,98696.84
2022-07-27T20:52:38.485Z,98694.25
2022-07-27T20:57:41.953Z,98693.31
2022-07-27T21:02:47.018Z,98695.09
2022-07-27T21:07:50.402Z,98694.25
2022-07-27T21:12:54.005Z,98688.91
2022-07-27T21:17:58.734Z,98689.78
2022-07-27T21:23:19.564Z,98683.22
2022-07-27T21:28:24.866Z,98688.94
2022-07-27T21:33:29.906Z,98679.41
2022-07-27T21:38:33.396Z,98678.72
2022-07-27T21:43:36.714Z,98672.59
2022-07-27T21:48:41.788Z,98673.72
2022-07-27T21:53:45.651Z,98671.06
2022-07-27T21:58:49.090Z,98677.22
2022-07-27T22:03:53.858Z,98680.97
2022-07-27T22:08:57.314Z,98679.72
2022-07-27T22:14:00.649Z,98663.34
2022-07-27T22:19:05.524Z,98666.78
2022-07-27T22:24:09.009Z,98670.00
2022-07-27T22:29:12.345Z,98673.00
2022-07-27T22:34:17.684Z,98657.44
2022-07-27T22:39:21.122Z,98662.97
2022-07-27T22:44:24.932Z,98653.03
2022-07-27T22:49:29.940Z,98667.31
2022-07-27T22:54:35.105Z,98665.72
2022-07-27T22:59:38.714Z,98671.63
2022-07-27T23:04:43.629Z,98649.78
2022-07-27T23:09:47.023Z,98659.13
2022-07-27T23:14:50.606Z,98676.34
2022-07-27T23:19:55.348Z,98671.25
2022-07-27T23:24:58.656Z,98674.53
2022-07-27T23:30:01.958Z,98678.03
2022-07-27T23:35:09.448Z,98688.59
2022-07-27T23:40:13.489Z,98690.84
2022-07-27T23:45:16.885Z,98687.91
2022-07-27T23:50:21.673Z,98688.94
2022-07-27T23:55:25.090Z,98690.47
